This is the latest recevied weather packets stored in our database for station/object DB0SWS-13. If no packets are shown the sender has not sent any weather packets the latest 10 day(s).
| Time | Temp. | Humidity | Pressure | Rain* | Wind** | Luminosity | Snow |
|---|---|---|---|---|---|---|---|
| 1787511109 | 19.44° C | 46% | 1024.7 hPa | - | - | - | - |
| 1787510209 | 20° C | 45% | 1024.5 hPa | - | - | - | - |
| 1787509309 | 20.56° C | 44% | 1024.4 hPa | - | - | - | - |
| 1787508408 | 21.11° C | 42% | 1024.3 hPa | - | - | - | - |
| 1787507508 | 22.22° C | 41% | 1024.4 hPa | - | - | - | - |
| 1787506607 | 23.33° C | 38% | 1024.6 hPa | - | - | - | - |
| 1787505707 | 31.11° C | 26% | 1024.5 hPa | - | - | - | - |
| 1787504810 | 25° C | 36% | 1024.7 hPa | - | - | - | - |
| 1787503910 | 24.44° C | 38% | 1024.7 hPa | - | - | - | - |
| 1787503010 | 25° C | 37% | 1024.7 hPa | - | - | - | - |
| 1787502110 | 25.56° C | 37% | 1024.8 hPa | - | - | - | - |
| 1787501209 | 24.44° C | 37% | 1024.8 hPa | - | - | - | - |
| 1787500309 | 25° C | 36% | 1024.8 hPa | - | - | - | - |
| 1787499409 | 26.67° C | 35% | 1024.8 hPa | - | - | - | - |
| 1787498509 | 26.67° C | 35% | 1024.8 hPa | - | - | - | - |
| 1787497609 | 25.56° C | 35% | 1025 hPa | - | - | - | - |
| 1787496709 | 25° C | 36% | 1025.1 hPa | - | - | - | - |
| 1787495809 | 24.44° C | 38% | 1025 hPa | - | - | - | - |
| 1787494909 | 24.44° C | 37% | 1025.3 hPa | - | - | - | - |
| 1787494008 | 24.44° C | 38% | 1025.4 hPa | - | - | - | - |
| 1787493108 | 23.89° C | 38% | 1025.4 hPa | - | - | - | - |
| 1787492208 | 23.89° C | 39% | 1025.6 hPa | - | - | - | - |
| 1787491308 | 23.89° C | 39% | 1025.7 hPa | - | - | - | - |
| 1787490408 | 23.33° C | 39% | 1025.6 hPa | - | - | - | - |
| 1787489508 | 23.89° C | 39% | 1025.6 hPa | - | - | - | - |
* Rain since midnight (hover to see other rain measurements)
** Current wind speed in m/s (hover to see current wind gust speed)